createdAt,value
2023-03-07T00:02:01.222Z,-0.99
2023-03-07T00:07:07.003Z,-1.19
2023-03-07T00:12:12.768Z,-1.34
2023-03-07T00:17:18.753Z,-1.39
2023-03-07T00:22:25.182Z,-1.40
2023-03-07T00:27:32.017Z,-1.43
2023-03-07T00:32:38.157Z,-1.46
2023-03-07T00:37:44.064Z,-1.45
2023-03-07T00:42:50.981Z,-1.41
2023-03-07T00:47:57.558Z,-1.38
2023-03-07T00:53:03.875Z,-1.37
2023-03-07T00:58:09.993Z,-1.37
2023-03-07T01:03:15.873Z,-1.41
2023-03-07T01:08:22.933Z,-1.50
2023-03-07T01:13:29.996Z,-1.63
2023-03-07T01:18:35.751Z,-1.78
2023-03-07T01:23:42.061Z,-1.97
2023-03-07T01:28:50.404Z,-2.20
2023-03-07T01:33:56.928Z,-2.41
2023-03-07T01:39:06.812Z,-2.62
2023-03-07T01:44:20.422Z,-2.83
2023-03-07T01:49:30.148Z,-3.02
2023-03-07T01:54:49.019Z,-3.17
2023-03-07T02:00:01.041Z,-3.23
2023-03-07T02:05:14.496Z,-3.21
2023-03-07T02:10:22.726Z,-3.11
2023-03-07T02:15:29.315Z,-3.01
2023-03-07T02:20:43.413Z,-2.94
2023-03-07T02:25:58.461Z,-2.91
2023-03-07T02:31:07.482Z,-2.94
2023-03-07T02:36:19.392Z,-3.01
2023-03-07T02:41:38.507Z,-3.11
2023-03-07T02:46:51.492Z,-3.26
2023-03-07T02:52:00.696Z,-3.45
2023-03-07T02:57:07.415Z,-3.58
2023-03-07T03:02:13.735Z,-3.62
2023-03-07T03:07:20.013Z,-3.67
2023-03-07T03:12:26.307Z,-3.76
2023-03-07T03:17:32.315Z,-3.84
2023-03-07T03:22:38.356Z,-3.96
2023-03-07T03:27:44.665Z,-4.09
2023-03-07T03:32:51.486Z,-4.24
2023-03-07T03:37:58.222Z,-4.43
2023-03-07T03:43:04.928Z,-4.63
2023-03-07T03:48:11.207Z,-4.82
2023-03-07T03:53:17.072Z,-4.94
2023-03-07T03:58:22.781Z,-4.96
2023-03-07T04:03:28.915Z,-4.86
2023-03-07T04:08:35.553Z,-4.73
2023-03-07T04:13:41.652Z,-4.77
2023-03-07T04:18:47.372Z,-4.95
2023-03-07T04:23:57.221Z,-5.08
2023-03-07T04:29:05.903Z,-5.23
2023-03-07T04:34:15.553Z,-5.40
2023-03-07T04:39:21.567Z,-5.56
2023-03-07T04:44:27.841Z,-5.71
2023-03-07T04:49:33.942Z,-5.89
2023-03-07T04:54:41.008Z,-5.98
2023-03-07T04:59:47.606Z,-6.01
2023-03-07T05:04:54.184Z,-6.07
2023-03-07T05:10:01.186Z,-6.03
2023-03-07T05:15:10.300Z,-5.85
2023-03-07T05:20:16.441Z,-5.63
2023-03-07T05:25:22.560Z,-5.44
2023-03-07T05:30:29.358Z,-5.24
2023-03-07T05:35:35.678Z,-5.08
2023-03-07T05:40:42.413Z,-4.92
2023-03-07T05:45:50.981Z,-4.73
2023-03-07T05:51:01.276Z,-4.48
2023-03-07T05:56:06.585Z,-4.23
2023-03-07T06:01:12.375Z,-3.99
2023-03-07T06:06:19.492Z,-3.84
2023-03-07T06:11:25.737Z,-3.76
2023-03-07T06:16:31.749Z,-3.62
2023-03-07T06:21:38.527Z,-3.36
2023-03-07T06:26:45.501Z,-3.08
2023-03-07T06:31:52.197Z,-2.90
2023-03-07T06:36:58.342Z,-2.42
2023-03-07T06:42:04.828Z,-1.85
2023-03-07T06:47:11.473Z,-1.77
2023-03-07T06:52:17.461Z,-1.93
2023-03-07T06:57:23.823Z,-1.98
2023-03-07T07:02:29.893Z,-1.97
2023-03-07T07:07:36.181Z,-1.87
2023-03-07T07:12:42.696Z,-1.76
2023-03-07T07:17:51.397Z,-1.63
2023-03-07T07:22:58.076Z,-1.51
2023-03-07T07:28:04.308Z,-1.53
2023-03-07T07:33:10.405Z,-1.47
2023-03-07T07:38:16.483Z,-1.47
2023-03-07T07:43:22.657Z,-1.45
2023-03-07T07:48:37.738Z,-1.18
2023-03-07T07:53:43.616Z,-0.35
2023-03-07T07:58:50.540Z,0.05
2023-03-07T08:03:56.454Z,0.68
2023-03-07T08:09:03.169Z,1.31
2023-03-07T08:14:09.871Z,1.39
2023-03-07T08:19:15.966Z,1.99
2023-03-07T08:24:32.047Z,3.52
2023-03-07T08:29:48.088Z,6.04
2023-03-07T08:34:54.229Z,7.86
2023-03-07T08:40:00.157Z,9.71
2023-03-07T08:45:08.221Z,11.32
2023-03-07T08:50:14.500Z,12.63
2023-03-07T08:55:21.277Z,12.29
2023-03-07T09:00:27.222Z,11.98
2023-03-07T09:05:36.807Z,12.58
2023-03-07T09:10:42.640Z,13.36
2023-03-07T09:15:48.377Z,13.99
2023-03-07T09:20:54.416Z,13.66
2023-03-07T09:26:02.047Z,13.32
2023-03-07T09:31:11.081Z,13.49
2023-03-07T09:36:19.602Z,13.68
2023-03-07T09:41:52.256Z,13.53
2023-03-07T09:47:11.014Z,13.44
2023-03-07T09:52:20.587Z,13.83
2023-03-07T09:57:28.722Z,13.58
2023-03-07T10:02:39.296Z,12.63
2023-03-07T10:07:45.501Z,12.22
2023-03-07T10:13:04.904Z,11.79
2023-03-07T10:18:39.891Z,11.57
2023-03-07T10:24:20.343Z,11.66
2023-03-07T10:29:31.283Z,11.33
2023-03-07T10:34:37.140Z,10.10
2023-03-07T10:39:49.697Z,9.63
2023-03-07T10:44:55.524Z,9.29
2023-03-07T10:50:18.230Z,8.51
2023-03-07T10:55:37.122Z,7.39
2023-03-07T11:00:47.256Z,6.58
2023-03-07T11:05:53.982Z,5.80
2023-03-07T11:11:00.978Z,5.18
2023-03-07T11:16:20.407Z,4.88
2023-03-07T11:21:32.809Z,4.96
2023-03-07T11:26:41.726Z,5.36
2023-03-07T11:31:58.519Z,5.46
2023-03-07T11:37:23.676Z,5.81
2023-03-07T11:42:35.131Z,6.32
2023-03-07T11:47:44.140Z,6.26
2023-03-07T11:53:21.809Z,6.35
2023-03-07T11:59:10.013Z,6.49
2023-03-07T12:04:38.721Z,6.66
2023-03-07T12:09:55.344Z,6.90
2023-03-07T12:15:19.699Z,7.13
2023-03-07T12:20:31.035Z,7.15
2023-03-07T12:25:40.173Z,7.03
2023-03-07T12:31:02.251Z,7.17
2023-03-07T12:36:16.537Z,7.40
2023-03-07T12:41:32.305Z,7.53
2023-03-07T12:46:47.016Z,7.49
2023-03-07T12:52:00.013Z,7.52
2023-03-07T12:57:10.198Z,7.42
2023-03-07T13:02:21.988Z,7.18
2023-03-07T13:07:30.812Z,7.04
2023-03-07T13:12:38.376Z,7.03
2023-03-07T13:18:01.191Z,7.01
2023-03-07T13:23:32.400Z,6.81
2023-03-07T13:28:41.373Z,6.58
2023-03-07T13:33:48.089Z,6.32
2023-03-07T13:38:54.415Z,6.18
2023-03-07T13:44:04.801Z,6.04
2023-03-07T13:49:11.048Z,5.87
2023-03-07T13:54:16.935Z,5.71
2023-03-07T13:59:28.668Z,5.57
2023-03-07T14:04:41.244Z,5.41
2023-03-07T14:09:50.970Z,5.30
2023-03-07T14:15:13.054Z,5.31
2023-03-07T14:20:28.035Z,5.33
2023-03-07T14:25:35.969Z,5.35
2023-03-07T14:30:42.115Z,5.30
2023-03-07T14:35:49.109Z,5.22
2023-03-07T14:41:23.210Z,5.14
2023-03-07T14:46:36.385Z,5.05
2023-03-07T14:51:44.735Z,4.99
2023-03-07T14:56:54.156Z,4.93
2023-03-07T15:02:00.117Z,4.89
2023-03-07T15:07:20.685Z,4.86
2023-03-07T15:12:30.332Z,4.85
2023-03-07T15:17:44.055Z,4.85
2023-03-07T15:22:52.393Z,4.84
2023-03-07T15:28:04.458Z,4.85
2023-03-07T15:33:22.423Z,4.85
2023-03-07T15:38:29.343Z,4.84
2023-03-07T15:43:37.520Z,4.84
2023-03-07T15:48:48.729Z,4.84
2023-03-07T15:53:56.058Z,4.83
2023-03-07T15:59:05.114Z,4.79
2023-03-07T16:04:30.640Z,4.76
2023-03-07T16:09:36.345Z,4.74
2023-03-07T16:14:42.422Z,4.71
2023-03-07T16:19:49.784Z,4.68
2023-03-07T16:24:55.758Z,4.63
2023-03-07T16:30:02.534Z,4.58
2023-03-07T16:35:16.616Z,4.52
2023-03-07T16:40:23.455Z,4.45
2023-03-07T16:45:30.747Z,4.41
2023-03-07T16:50:36.897Z,4.38
2023-03-07T16:55:43.291Z,4.35
2023-03-07T17:00:50.463Z,4.33
2023-03-07T17:05:56.446Z,4.32
2023-03-07T17:11:02.557Z,4.31
2023-03-07T17:16:12.338Z,4.30
2023-03-07T17:21:21.586Z,4.29
2023-03-07T17:26:31.892Z,4.29
2023-03-07T17:31:37.733Z,4.27
2023-03-07T17:36:43.729Z,4.24
2023-03-07T17:41:50.728Z,4.22
2023-03-07T17:46:56.856Z,4.19
2023-03-07T17:52:06.290Z,4.18
2023-03-07T17:57:12.494Z,4.16
2023-03-07T18:02:18.345Z,4.15
2023-03-07T18:07:24.954Z,4.15
2023-03-07T18:12:31.734Z,4.15
2023-03-07T18:17:47.709Z,4.14
2023-03-07T18:22:56.062Z,4.13
2023-03-07T18:28:05.791Z,4.13
2023-03-07T18:33:13.114Z,4.13
2023-03-07T18:38:20.457Z,4.14
2023-03-07T18:43:27.392Z,4.12
2023-03-07T18:48:34.794Z,4.11
2023-03-07T18:53:42.800Z,4.11
2023-03-07T18:58:54.404Z,4.11
2023-03-07T19:04:03.521Z,4.13
2023-03-07T19:09:15.956Z,4.15
2023-03-07T19:14:22.089Z,4.17
2023-03-07T19:19:28.003Z,4.18
2023-03-07T19:24:34.257Z,4.23
2023-03-07T19:29:39.890Z,4.30
2023-03-07T19:34:48.141Z,4.34
2023-03-07T19:39:54.722Z,4.34
2023-03-07T19:45:00.520Z,4.30
2023-03-07T19:50:07.701Z,4.25
2023-03-07T19:55:13.678Z,4.23
2023-03-07T20:00:21.527Z,4.18
2023-03-07T20:05:27.592Z,4.13
2023-03-07T20:10:33.501Z,4.09
2023-03-07T20:15:39.378Z,4.08
2023-03-07T20:20:45.709Z,4.05
2023-03-07T20:26:23.246Z,4.02
2023-03-07T20:31:29.449Z,4.02
2023-03-07T20:36:36.145Z,4.09
2023-03-07T20:41:42.703Z,4.16
2023-03-07T20:46:49.901Z,4.22
2023-03-07T20:51:55.904Z,4.31
2023-03-07T20:57:03.721Z,4.36
2023-03-07T21:02:09.615Z,4.35
2023-03-07T21:07:15.141Z,4.33
2023-03-07T21:12:21.104Z,4.33
2023-03-07T21:17:26.493Z,4.35
2023-03-07T21:22:32.238Z,4.31
2023-03-07T21:27:37.763Z,4.27
2023-03-07T21:32:43.499Z,4.24
2023-03-07T21:37:49.761Z,4.28
2023-03-07T21:42:55.230Z,4.30
2023-03-07T21:48:00.842Z,4.27
2023-03-07T21:53:06.380Z,4.24
2023-03-07T21:58:12.003Z,4.24
2023-03-07T22:03:18.087Z,4.23
2023-03-07T22:08:23.500Z,4.18
2023-03-07T22:13:29.773Z,4.14
2023-03-07T22:18:35.294Z,4.14
2023-03-07T22:23:40.908Z,4.09
2023-03-07T22:28:46.356Z,3.97
2023-03-07T22:33:52.628Z,3.41
2023-03-07T22:38:58.151Z,2.80
2023-03-07T22:44:03.989Z,2.29
2023-03-07T22:49:12.307Z,1.93
2023-03-07T22:54:17.798Z,1.67
2023-03-07T22:59:23.190Z,1.48
2023-03-07T23:04:30.562Z,1.35
2023-03-07T23:09:36.205Z,1.25
2023-03-07T23:14:41.735Z,1.15
2023-03-07T23:19:47.437Z,1.02
2023-03-07T23:24:53.079Z,0.91
2023-03-07T23:29:58.777Z,0.83
2023-03-07T23:35:05.178Z,0.80
2023-03-07T23:40:12.557Z,0.73
2023-03-07T23:45:19.625Z,0.70
2023-03-07T23:50:27.157Z,0.69
2023-03-07T23:55:32.759Z,0.70
